sensor_id;sensor_type;location;lat;lon;timestamp;P1;durP1;ratioP1;P2;durP2;ratioP2
17488;SDS011;8861;52.644;4.734;2023-03-23T00:01:46;29.30;;;16.83;;
17488;SDS011;8861;52.644;4.734;2023-03-23T00:04:14;30.17;;;17.53;;
17488;SDS011;8861;52.644;4.734;2023-03-23T00:06:42;29.10;;;17.03;;
17488;SDS011;8861;52.644;4.734;2023-03-23T00:09:11;24.67;;;14.73;;
17488;SDS011;8861;52.644;4.734;2023-03-23T00:11:40;27.70;;;16.40;;
17488;SDS011;8861;52.644;4.734;2023-03-23T00:14:08;29.30;;;15.70;;
17488;SDS011;8861;52.644;4.734;2023-03-23T00:16:41;21.17;;;12.83;;
17488;SDS011;8861;52.644;4.734;2023-03-23T00:19:10;25.87;;;12.37;;
17488;SDS011;8861;52.644;4.734;2023-03-23T00:21:38;21.13;;;11.90;;
17488;SDS011;8861;52.644;4.734;2023-03-23T00:24:07;24.00;;;13.00;;
17488;SDS011;8861;52.644;4.734;2023-03-23T00:26:37;18.57;;;10.80;;
17488;SDS011;8861;52.644;4.734;2023-03-23T00:29:06;18.13;;;12.30;;
17488;SDS011;8861;52.644;4.734;2023-03-23T00:31:39;18.73;;;11.00;;
17488;SDS011;8861;52.644;4.734;2023-03-23T00:34:12;20.53;;;11.30;;
17488;SDS011;8861;52.644;4.734;2023-03-23T00:36:44;18.13;;;9.93;;
17488;SDS011;8861;52.644;4.734;2023-03-23T00:39:12;18.13;;;9.63;;
17488;SDS011;8861;52.644;4.734;2023-03-23T00:41:42;16.03;;;9.20;;
17488;SDS011;8861;52.644;4.734;2023-03-23T00:44:09;19.43;;;9.70;;
17488;SDS011;8861;52.644;4.734;2023-03-23T00:46:42;18.50;;;9.73;;
17488;SDS011;8861;52.644;4.734;2023-03-23T00:49:11;14.80;;;7.73;;
17488;SDS011;8861;52.644;4.734;2023-03-23T00:51:39;13.70;;;8.17;;
17488;SDS011;8861;52.644;4.734;2023-03-23T00:54:06;17.67;;;8.23;;
17488;SDS011;8861;52.644;4.734;2023-03-23T00:56:34;13.23;;;7.43;;
17488;SDS011;8861;52.644;4.734;2023-03-23T00:59:02;16.10;;;7.77;;
17488;SDS011;8861;52.644;4.734;2023-03-23T01:01:29;15.73;;;7.33;;
17488;SDS011;8861;52.644;4.734;2023-03-23T01:03:57;14.60;;;7.70;;
17488;SDS011;8861;52.644;4.734;2023-03-23T01:06:26;15.97;;;7.30;;
17488;SDS011;8861;52.644;4.734;2023-03-23T01:08:55;17.87;;;7.37;;
17488;SDS011;8861;52.644;4.734;2023-03-23T01:11:23;15.20;;;6.90;;
17488;SDS011;8861;52.644;4.734;2023-03-23T01:13:51;13.83;;;6.57;;
17488;SDS011;8861;52.644;4.734;2023-03-23T01:16:19;10.27;;;5.83;;
17488;SDS011;8861;52.644;4.734;2023-03-23T01:18:46;15.30;;;6.37;;
17488;SDS011;8861;52.644;4.734;2023-03-23T01:21:18;13.30;;;6.07;;
17488;SDS011;8861;52.644;4.734;2023-03-23T01:23:46;12.40;;;5.67;;
17488;SDS011;8861;52.644;4.734;2023-03-23T01:26:14;12.50;;;5.93;;
17488;SDS011;8861;52.644;4.734;2023-03-23T01:28:43;14.23;;;5.17;;
17488;SDS011;8861;52.644;4.734;2023-03-23T01:31:10;13.10;;;5.37;;
17488;SDS011;8861;52.644;4.734;2023-03-23T01:33:40;14.43;;;4.87;;
17488;SDS011;8861;52.644;4.734;2023-03-23T01:36:10;10.73;;;4.83;;
17488;SDS011;8861;52.644;4.734;2023-03-23T01:38:38;10.07;;;4.90;;
17488;SDS011;8861;52.644;4.734;2023-03-23T01:41:05;11.17;;;4.57;;
17488;SDS011;8861;52.644;4.734;2023-03-23T01:43:32;9.03;;;4.63;;
17488;SDS011;8861;52.644;4.734;2023-03-23T01:45:59;10.63;;;4.50;;
17488;SDS011;8861;52.644;4.734;2023-03-23T01:48:27;8.97;;;4.13;;
17488;SDS011;8861;52.644;4.734;2023-03-23T01:51:01;13.60;;;4.93;;
17488;SDS011;8861;52.644;4.734;2023-03-23T01:53:33;8.50;;;4.40;;
17488;SDS011;8861;52.644;4.734;2023-03-23T01:56:03;9.93;;;4.27;;
17488;SDS011;8861;52.644;4.734;2023-03-23T01:58:33;8.50;;;4.30;;
17488;SDS011;8861;52.644;4.734;2023-03-23T02:01:04;13.53;;;4.60;;
17488;SDS011;8861;52.644;4.734;2023-03-23T02:03:34;9.90;;;3.90;;
17488;SDS011;8861;52.644;4.734;2023-03-23T02:06:05;9.20;;;4.40;;
17488;SDS011;8861;52.644;4.734;2023-03-23T02:08:32;12.43;;;4.30;;
17488;SDS011;8861;52.644;4.734;2023-03-23T02:11:00;8.00;;;4.47;;
17488;SDS011;8861;52.644;4.734;2023-03-23T02:13:30;13.83;;;4.90;;
17488;SDS011;8861;52.644;4.734;2023-03-23T02:15:59;10.53;;;4.60;;
17488;SDS011;8861;52.644;4.734;2023-03-23T02:18:35;11.93;;;5.00;;
17488;SDS011;8861;52.644;4.734;2023-03-23T02:27:23;13.20;;;4.67;;
17488;SDS011;8861;52.644;4.734;2023-03-23T02:30:11;19.77;;;5.23;;
17488;SDS011;8861;52.644;4.734;2023-03-23T02:35:46;17.20;;;5.47;;
17488;SDS011;8861;52.644;4.734;2023-03-23T02:38:17;15.83;;;5.60;;
17488;SDS011;8861;52.644;4.734;2023-03-23T02:40:53;14.80;;;5.40;;
17488;SDS011;8861;52.644;4.734;2023-03-23T02:43:24;10.40;;;4.80;;
17488;SDS011;8861;52.644;4.734;2023-03-23T02:45:56;20.43;;;6.53;;
17488;SDS011;8861;52.644;4.734;2023-03-23T02:48:28;23.07;;;7.27;;
17488;SDS011;8861;52.644;4.734;2023-03-23T02:50:58;22.83;;;6.97;;
17488;SDS011;8861;52.644;4.734;2023-03-23T02:53:26;26.73;;;8.47;;
17488;SDS011;8861;52.644;4.734;2023-03-23T02:55:55;22.90;;;9.20;;
17488;SDS011;8861;52.644;4.734;2023-03-23T02:58:24;24.20;;;9.53;;
17488;SDS011;8861;52.644;4.734;2023-03-23T03:00:51;22.27;;;8.80;;
17488;SDS011;8861;52.644;4.734;2023-03-23T03:03:22;27.67;;;9.80;;
17488;SDS011;8861;52.644;4.734;2023-03-23T03:05:53;21.23;;;8.47;;
17488;SDS011;8861;52.644;4.734;2023-03-23T03:08:32;22.27;;;8.40;;
17488;SDS011;8861;52.644;4.734;2023-03-23T03:11:10;26.90;;;7.77;;
17488;SDS011;8861;52.644;4.734;2023-03-23T03:13:42;21.33;;;7.07;;
17488;SDS011;8861;52.644;4.734;2023-03-23T03:16:16;20.40;;;6.30;;
17488;SDS011;8861;52.644;4.734;2023-03-23T03:18:51;19.33;;;6.27;;
17488;SDS011;8861;52.644;4.734;2023-03-23T03:21:25;17.23;;;6.47;;
17488;SDS011;8861;52.644;4.734;2023-03-23T03:23:56;22.20;;;6.47;;
17488;SDS011;8861;52.644;4.734;2023-03-23T03:26:26;18.70;;;5.70;;
17488;SDS011;8861;52.644;4.734;2023-03-23T03:28:56;24.53;;;6.00;;
17488;SDS011;8861;52.644;4.734;2023-03-23T03:31:23;28.37;;;6.30;;
17488;SDS011;8861;52.644;4.734;2023-03-23T03:33:55;19.83;;;5.23;;
17488;SDS011;8861;52.644;4.734;2023-03-23T03:36:23;28.83;;;7.13;;
17488;SDS011;8861;52.644;4.734;2023-03-23T03:39:00;20.80;;;5.77;;
17488;SDS011;8861;52.644;4.734;2023-03-23T03:41:30;22.60;;;5.47;;
17488;SDS011;8861;52.644;4.734;2023-03-23T03:43:57;24.47;;;6.73;;
17488;SDS011;8861;52.644;4.734;2023-03-23T03:46:24;31.77;;;6.50;;
17488;SDS011;8861;52.644;4.734;2023-03-23T03:48:54;22.17;;;5.90;;
17488;SDS011;8861;52.644;4.734;2023-03-23T03:51:21;22.73;;;5.87;;
17488;SDS011;8861;52.644;4.734;2023-03-23T03:53:50;29.03;;;6.27;;
17488;SDS011;8861;52.644;4.734;2023-03-23T03:56:17;28.00;;;6.40;;
17488;SDS011;8861;52.644;4.734;2023-03-23T03:58:44;33.03;;;6.10;;
17488;SDS011;8861;52.644;4.734;2023-03-23T04:01:13;37.80;;;6.73;;
17488;SDS011;8861;52.644;4.734;2023-03-23T04:03:41;37.60;;;6.40;;
17488;SDS011;8861;52.644;4.734;2023-03-23T04:06:08;21.93;;;5.73;;
17488;SDS011;8861;52.644;4.734;2023-03-23T04:08:37;37.40;;;6.63;;
17488;SDS011;8861;52.644;4.734;2023-03-23T04:11:08;28.63;;;5.53;;
17488;SDS011;8861;52.644;4.734;2023-03-23T04:13:37;25.67;;;6.07;;
17488;SDS011;8861;52.644;4.734;2023-03-23T04:16:05;35.03;;;6.20;;
17488;SDS011;8861;52.644;4.734;2023-03-23T04:18:33;32.20;;;5.60;;
17488;SDS011;8861;52.644;4.734;2023-03-23T04:21:00;28.57;;;5.97;;
17488;SDS011;8861;52.644;4.734;2023-03-23T04:23:29;34.10;;;6.23;;
17488;SDS011;8861;52.644;4.734;2023-03-23T04:25:58;37.03;;;6.43;;
17488;SDS011;8861;52.644;4.734;2023-03-23T04:28:27;28.60;;;5.60;;
17488;SDS011;8861;52.644;4.734;2023-03-23T04:30:54;38.50;;;6.40;;
17488;SDS011;8861;52.644;4.734;2023-03-23T04:33:22;35.20;;;5.93;;
17488;SDS011;8861;52.644;4.734;2023-03-23T04:35:50;30.33;;;6.10;;
17488;SDS011;8861;52.644;4.734;2023-03-23T04:38:18;30.43;;;6.53;;
17488;SDS011;8861;52.644;4.734;2023-03-23T04:40:48;29.33;;;5.70;;
17488;SDS011;8861;52.644;4.734;2023-03-23T04:43:17;24.67;;;5.77;;
17488;SDS011;8861;52.644;4.734;2023-03-23T04:45:51;27.83;;;6.03;;
17488;SDS011;8861;52.644;4.734;2023-03-23T04:48:21;34.27;;;5.80;;
17488;SDS011;8861;52.644;4.734;2023-03-23T04:50:48;33.40;;;6.10;;
17488;SDS011;8861;52.644;4.734;2023-03-23T04:53:16;26.07;;;5.63;;
17488;SDS011;8861;52.644;4.734;2023-03-23T04:55:43;32.17;;;6.23;;
17488;SDS011;8861;52.644;4.734;2023-03-23T04:58:11;24.87;;;5.67;;
17488;SDS011;8861;52.644;4.734;2023-03-23T05:00:39;30.13;;;5.97;;
17488;SDS011;8861;52.644;4.734;2023-03-23T05:03:10;28.70;;;5.93;;
17488;SDS011;8861;52.644;4.734;2023-03-23T05:05:41;27.63;;;5.50;;
17488;SDS011;8861;52.644;4.734;2023-03-23T05:08:08;28.67;;;5.57;;
17488;SDS011;8861;52.644;4.734;2023-03-23T05:10:35;30.30;;;5.73;;
17488;SDS011;8861;52.644;4.734;2023-03-23T05:13:02;28.93;;;5.97;;
17488;SDS011;8861;52.644;4.734;2023-03-23T05:15:29;39.07;;;7.33;;
17488;SDS011;8861;52.644;4.734;2023-03-23T05:17:56;38.27;;;6.70;;
17488;SDS011;8861;52.644;4.734;2023-03-23T05:20:24;34.27;;;6.63;;
17488;SDS011;8861;52.644;4.734;2023-03-23T05:22:52;33.93;;;6.17;;
17488;SDS011;8861;52.644;4.734;2023-03-23T05:25:21;33.43;;;6.73;;
17488;SDS011;8861;52.644;4.734;2023-03-23T05:27:48;49.10;;;7.37;;
17488;SDS011;8861;52.644;4.734;2023-03-23T05:30:18;40.97;;;7.97;;
17488;SDS011;8861;52.644;4.734;2023-03-23T05:32:46;46.60;;;8.00;;
17488;SDS011;8861;52.644;4.734;2023-03-23T05:35:15;40.63;;;7.93;;
17488;SDS011;8861;52.644;4.734;2023-03-23T05:37:44;38.50;;;6.83;;
17488;SDS011;8861;52.644;4.734;2023-03-23T05:40:12;49.40;;;7.60;;
17488;SDS011;8861;52.644;4.734;2023-03-23T05:42:40;41.43;;;7.57;;
17488;SDS011;8861;52.644;4.734;2023-03-23T05:45:07;48.53;;;8.30;;
17488;SDS011;8861;52.644;4.734;2023-03-23T05:47:37;37.40;;;7.57;;
17488;SDS011;8861;52.644;4.734;2023-03-23T05:50:05;46.60;;;7.73;;
17488;SDS011;8861;52.644;4.734;2023-03-23T05:52:34;43.83;;;7.13;;
17488;SDS011;8861;52.644;4.734;2023-03-23T05:55:03;44.40;;;7.63;;
17488;SDS011;8861;52.644;4.734;2023-03-23T05:57:31;44.00;;;7.37;;
17488;SDS011;8861;52.644;4.734;2023-03-23T05:59:58;45.97;;;7.87;;
17488;SDS011;8861;52.644;4.734;2023-03-23T06:02:26;46.90;;;7.40;;
17488;SDS011;8861;52.644;4.734;2023-03-23T06:04:55;39.43;;;7.73;;
17488;SDS011;8861;52.644;4.734;2023-03-23T06:07:23;50.70;;;7.93;;
17488;SDS011;8861;52.644;4.734;2023-03-23T06:09:50;40.80;;;7.27;;
17488;SDS011;8861;52.644;4.734;2023-03-23T06:12:18;55.27;;;7.97;;
17488;SDS011;8861;52.644;4.734;2023-03-23T06:14:46;49.03;;;8.07;;
17488;SDS011;8861;52.644;4.734;2023-03-23T06:17:13;50.13;;;7.47;;
17488;SDS011;8861;52.644;4.734;2023-03-23T06:19:41;50.27;;;7.70;;
17488;SDS011;8861;52.644;4.734;2023-03-23T06:22:08;43.30;;;6.87;;
17488;SDS011;8861;52.644;4.734;2023-03-23T06:24:35;38.87;;;7.10;;
17488;SDS011;8861;52.644;4.734;2023-03-23T06:27:03;40.33;;;8.10;;
17488;SDS011;8861;52.644;4.734;2023-03-23T06:29:31;44.37;;;7.47;;
17488;SDS011;8861;52.644;4.734;2023-03-23T06:32:02;50.23;;;8.33;;
17488;SDS011;8861;52.644;4.734;2023-03-23T06:34:31;47.30;;;7.43;;
17488;SDS011;8861;52.644;4.734;2023-03-23T06:36:58;50.73;;;8.07;;
17488;SDS011;8861;52.644;4.734;2023-03-23T06:39:27;51.23;;;7.90;;
17488;SDS011;8861;52.644;4.734;2023-03-23T06:41:56;53.47;;;8.87;;
17488;SDS011;8861;52.644;4.734;2023-03-23T06:44:24;57.47;;;9.17;;
17488;SDS011;8861;52.644;4.734;2023-03-23T06:46:52;40.53;;;7.37;;
17488;SDS011;8861;52.644;4.734;2023-03-23T06:49:20;51.80;;;8.20;;
17488;SDS011;8861;52.644;4.734;2023-03-23T06:51:47;44.33;;;8.60;;
17488;SDS011;8861;52.644;4.734;2023-03-23T06:54:14;56.37;;;9.10;;
17488;SDS011;8861;52.644;4.734;2023-03-23T06:56:41;61.60;;;9.77;;
17488;SDS011;8861;52.644;4.734;2023-03-23T06:59:08;55.50;;;9.27;;
17488;SDS011;8861;52.644;4.734;2023-03-23T07:01:35;56.87;;;9.90;;
17488;SDS011;8861;52.644;4.734;2023-03-23T07:04:05;47.43;;;8.80;;
17488;SDS011;8861;52.644;4.734;2023-03-23T07:06:32;59.43;;;10.33;;
17488;SDS011;8861;52.644;4.734;2023-03-23T07:08:58;58.97;;;9.87;;
17488;SDS011;8861;52.644;4.734;2023-03-23T07:11:26;52.10;;;8.83;;
17488;SDS011;8861;52.644;4.734;2023-03-23T07:13:52;49.80;;;8.77;;
17488;SDS011;8861;52.644;4.734;2023-03-23T07:16:19;54.37;;;8.53;;
17488;SDS011;8861;52.644;4.734;2023-03-23T07:18:46;52.23;;;9.37;;
17488;SDS011;8861;52.644;4.734;2023-03-23T07:21:15;48.00;;;8.40;;
17488;SDS011;8861;52.644;4.734;2023-03-23T07:23:42;63.83;;;9.67;;
17488;SDS011;8861;52.644;4.734;2023-03-23T07:26:11;60.77;;;9.57;;
17488;SDS011;8861;52.644;4.734;2023-03-23T07:28:38;48.23;;;9.03;;
17488;SDS011;8861;52.644;4.734;2023-03-23T07:31:06;57.20;;;9.87;;
17488;SDS011;8861;52.644;4.734;2023-03-23T07:33:34;60.37;;;10.33;;
17488;SDS011;8861;52.644;4.734;2023-03-23T07:36:02;56.90;;;9.13;;
17488;SDS011;8861;52.644;4.734;2023-03-23T07:38:31;53.20;;;8.70;;
17488;SDS011;8861;52.644;4.734;2023-03-23T07:40:58;48.53;;;8.80;;
17488;SDS011;8861;52.644;4.734;2023-03-23T07:43:25;50.33;;;8.40;;
17488;SDS011;8861;52.644;4.734;2023-03-23T07:45:53;62.03;;;9.30;;
17488;SDS011;8861;52.644;4.734;2023-03-23T07:48:20;49.27;;;8.53;;
17488;SDS011;8861;52.644;4.734;2023-03-23T07:50:47;59.67;;;9.53;;
17488;SDS011;8861;52.644;4.734;2023-03-23T07:53:14;59.47;;;8.70;;
17488;SDS011;8861;52.644;4.734;2023-03-23T07:55:42;51.97;;;9.43;;
17488;SDS011;8861;52.644;4.734;2023-03-23T07:58:09;41.40;;;7.43;;
17488;SDS011;8861;52.644;4.734;2023-03-23T08:00:43;42.80;;;7.30;;
17488;SDS011;8861;52.644;4.734;2023-03-23T08:03:10;43.10;;;8.40;;
17488;SDS011;8861;52.644;4.734;2023-03-23T08:05:37;52.67;;;8.67;;
17488;SDS011;8861;52.644;4.734;2023-03-23T08:08:07;56.20;;;8.47;;
17488;SDS011;8861;52.644;4.734;2023-03-23T08:10:34;43.03;;;7.67;;
17488;SDS011;8861;52.644;4.734;2023-03-23T08:13:03;53.67;;;9.23;;
17488;SDS011;8861;52.644;4.734;2023-03-23T08:15:32;59.30;;;8.43;;
17488;SDS011;8861;52.644;4.734;2023-03-23T08:18:02;47.20;;;8.07;;
17488;SDS011;8861;52.644;4.734;2023-03-23T08:20:30;40.53;;;7.40;;
17488;SDS011;8861;52.644;4.734;2023-03-23T08:22:58;51.30;;;7.87;;
17488;SDS011;8861;52.644;4.734;2023-03-23T08:25:25;47.67;;;7.47;;
17488;SDS011;8861;52.644;4.734;2023-03-23T08:27:52;43.93;;;7.87;;
17488;SDS011;8861;52.644;4.734;2023-03-23T08:30:21;37.67;;;7.17;;
17488;SDS011;8861;52.644;4.734;2023-03-23T08:32:49;47.70;;;7.43;;
17488;SDS011;8861;52.644;4.734;2023-03-23T08:35:17;41.40;;;7.10;;
17488;SDS011;8861;52.644;4.734;2023-03-23T08:37:45;49.53;;;7.50;;
17488;SDS011;8861;52.644;4.734;2023-03-23T08:40:16;39.97;;;6.73;;
17488;SDS011;8861;52.644;4.734;2023-03-23T08:42:45;32.07;;;6.40;;
17488;SDS011;8861;52.644;4.734;2023-03-23T08:45:16;35.70;;;6.10;;
17488;SDS011;8861;52.644;4.734;2023-03-23T08:47:46;44.27;;;7.20;;
17488;SDS011;8861;52.644;4.734;2023-03-23T08:50:17;45.97;;;6.80;;
17488;SDS011;8861;52.644;4.734;2023-03-23T08:52:47;35.00;;;6.07;;
17488;SDS011;8861;52.644;4.734;2023-03-23T08:55:15;35.50;;;7.40;;
17488;SDS011;8861;52.644;4.734;2023-03-23T08:57:43;35.67;;;6.20;;
17488;SDS011;8861;52.644;4.734;2023-03-23T09:00:12;35.20;;;6.13;;
17488;SDS011;8861;52.644;4.734;2023-03-23T09:02:43;42.57;;;6.33;;
17488;SDS011;8861;52.644;4.734;2023-03-23T09:05:12;41.83;;;6.30;;
17488;SDS011;8861;52.644;4.734;2023-03-23T09:07:41;32.10;;;6.27;;
17488;SDS011;8861;52.644;4.734;2023-03-23T09:10:11;30.13;;;5.90;;
17488;SDS011;8861;52.644;4.734;2023-03-23T09:12:39;26.33;;;5.80;;
17488;SDS011;8861;52.644;4.734;2023-03-23T09:15:07;36.07;;;6.47;;
17488;SDS011;8861;52.644;4.734;2023-03-23T09:17:37;31.30;;;5.63;;
17488;SDS011;8861;52.644;4.734;2023-03-23T09:20:06;29.53;;;5.27;;
17488;SDS011;8861;52.644;4.734;2023-03-23T09:22:38;36.63;;;6.20;;
17488;SDS011;8861;52.644;4.734;2023-03-23T09:25:07;32.53;;;6.47;;
17488;SDS011;8861;52.644;4.734;2023-03-23T09:27:36;31.50;;;6.10;;
17488;SDS011;8861;52.644;4.734;2023-03-23T09:30:05;24.67;;;5.40;;
17488;SDS011;8861;52.644;4.734;2023-03-23T09:32:35;37.10;;;6.10;;
17488;SDS011;8861;52.644;4.734;2023-03-23T09:35:03;37.27;;;6.10;;
17488;SDS011;8861;52.644;4.734;2023-03-23T09:37:34;36.13;;;6.17;;
17488;SDS011;8861;52.644;4.734;2023-03-23T09:40:03;30.40;;;4.80;;
17488;SDS011;8861;52.644;4.734;2023-03-23T09:42:35;34.13;;;5.73;;
17488;SDS011;8861;52.644;4.734;2023-03-23T09:45:10;25.03;;;4.90;;
17488;SDS011;8861;52.644;4.734;2023-03-23T09:47:49;32.97;;;5.77;;
17488;SDS011;8861;52.644;4.734;2023-03-23T09:50:32;26.80;;;5.30;;
17488;SDS011;8861;52.644;4.734;2023-03-23T09:53:02;31.87;;;5.57;;
17488;SDS011;8861;52.644;4.734;2023-03-23T09:55:37;32.03;;;5.43;;
17488;SDS011;8861;52.644;4.734;2023-03-23T09:58:08;26.13;;;5.10;;
17488;SDS011;8861;52.644;4.734;2023-03-23T10:00:38;29.77;;;5.40;;
17488;SDS011;8861;52.644;4.734;2023-03-23T10:03:10;35.93;;;5.93;;
17488;SDS011;8861;52.644;4.734;2023-03-23T10:05:41;35.17;;;5.80;;
17488;SDS011;8861;52.644;4.734;2023-03-23T10:08:11;33.13;;;6.03;;
17488;SDS011;8861;52.644;4.734;2023-03-23T10:10:45;29.17;;;5.23;;
17488;SDS011;8861;52.644;4.734;2023-03-23T10:13:18;34.90;;;5.60;;
17488;SDS011;8861;52.644;4.734;2023-03-23T10:15:50;26.73;;;4.93;;
17488;SDS011;8861;52.644;4.734;2023-03-23T10:18:20;21.07;;;5.00;;
17488;SDS011;8861;52.644;4.734;2023-03-23T10:20:53;31.20;;;5.80;;
17488;SDS011;8861;52.644;4.734;2023-03-23T10:23:35;32.43;;;5.80;;
17488;SDS011;8861;52.644;4.734;2023-03-23T10:26:11;27.60;;;5.27;;
17488;SDS011;8861;52.644;4.734;2023-03-23T10:28:46;27.73;;;5.30;;
17488;SDS011;8861;52.644;4.734;2023-03-23T10:31:19;33.07;;;5.00;;
17488;SDS011;8861;52.644;4.734;2023-03-23T10:33:50;28.70;;;5.50;;
17488;SDS011;8861;52.644;4.734;2023-03-23T10:36:21;31.67;;;4.80;;
17488;SDS011;8861;52.644;4.734;2023-03-23T10:38:53;29.70;;;5.13;;
17488;SDS011;8861;52.644;4.734;2023-03-23T10:41:25;34.10;;;5.60;;
17488;SDS011;8861;52.644;4.734;2023-03-23T10:43:52;25.63;;;5.20;;
17488;SDS011;8861;52.644;4.734;2023-03-23T10:46:26;32.23;;;5.37;;
17488;SDS011;8861;52.644;4.734;2023-03-23T10:49:06;31.50;;;5.90;;
17488;SDS011;8861;52.644;4.734;2023-03-23T10:51:37;31.67;;;5.70;;
17488;SDS011;8861;52.644;4.734;2023-03-23T10:54:08;30.27;;;5.37;;
17488;SDS011;8861;52.644;4.734;2023-03-23T10:56:38;32.70;;;6.37;;
17488;SDS011;8861;52.644;4.734;2023-03-23T10:59:13;31.00;;;6.17;;
17488;SDS011;8861;52.644;4.734;2023-03-23T11:01:43;28.53;;;5.50;;
17488;SDS011;8861;52.644;4.734;2023-03-23T11:04:13;25.70;;;5.40;;
17488;SDS011;8861;52.644;4.734;2023-03-23T11:06:44;29.17;;;5.10;;
17488;SDS011;8861;52.644;4.734;2023-03-23T11:09:13;30.77;;;5.60;;
17488;SDS011;8861;52.644;4.734;2023-03-23T11:11:48;30.90;;;5.70;;
17488;SDS011;8861;52.644;4.734;2023-03-23T11:14:16;33.43;;;5.70;;
17488;SDS011;8861;52.644;4.734;2023-03-23T11:16:45;32.30;;;5.67;;
17488;SDS011;8861;52.644;4.734;2023-03-23T11:19:21;30.00;;;5.33;;
17488;SDS011;8861;52.644;4.734;2023-03-23T11:21:49;23.70;;;5.43;;
17488;SDS011;8861;52.644;4.734;2023-03-23T11:24:17;34.70;;;5.83;;
17488;SDS011;8861;52.644;4.734;2023-03-23T11:26:46;28.53;;;5.57;;
17488;SDS011;8861;52.644;4.734;2023-03-23T11:29:14;26.03;;;4.97;;
17488;SDS011;8861;52.644;4.734;2023-03-23T11:31:44;31.50;;;5.80;;
17488;SDS011;8861;52.644;4.734;2023-03-23T11:34:16;27.40;;;5.40;;
17488;SDS011;8861;52.644;4.734;2023-03-23T11:36:47;26.57;;;5.20;;
17488;SDS011;8861;52.644;4.734;2023-03-23T11:39:20;28.53;;;5.30;;
17488;SDS011;8861;52.644;4.734;2023-03-23T11:41:50;29.93;;;5.77;;
17488;SDS011;8861;52.644;4.734;2023-03-23T11:44:19;27.27;;;5.80;;
17488;SDS011;8861;52.644;4.734;2023-03-23T11:46:50;23.07;;;4.77;;
17488;SDS011;8861;52.644;4.734;2023-03-23T11:49:30;22.87;;;4.80;;
17488;SDS011;8861;52.644;4.734;2023-03-23T11:52:09;26.27;;;5.03;;
17488;SDS011;8861;52.644;4.734;2023-03-23T11:54:42;27.43;;;4.90;;
17488;SDS011;8861;52.644;4.734;2023-03-23T11:57:16;27.50;;;5.27;;
17488;SDS011;8861;52.644;4.734;2023-03-23T11:59:43;29.97;;;5.13;;
17488;SDS011;8861;52.644;4.734;2023-03-23T12:02:30;28.87;;;5.40;;
17488;SDS011;8861;52.644;4.734;2023-03-23T12:05:17;24.43;;;4.93;;
17488;SDS011;8861;52.644;4.734;2023-03-23T12:07:58;22.67;;;5.23;;
17488;SDS011;8861;52.644;4.734;2023-03-23T12:10:38;22.37;;;4.97;;
17488;SDS011;8861;52.644;4.734;2023-03-23T12:13:20;24.00;;;4.77;;
17488;SDS011;8861;52.644;4.734;2023-03-23T12:16:04;29.57;;;4.97;;
17488;SDS011;8861;52.644;4.734;2023-03-23T12:18:45;19.73;;;4.40;;
17488;SDS011;8861;52.644;4.734;2023-03-23T12:21:21;21.13;;;4.70;;
17488;SDS011;8861;52.644;4.734;2023-03-23T12:23:58;19.93;;;5.07;;
17488;SDS011;8861;52.644;4.734;2023-03-23T12:26:31;24.10;;;4.83;;
17488;SDS011;8861;52.644;4.734;2023-03-23T12:31:58;32.30;;;5.53;;
17488;SDS011;8861;52.644;4.734;2023-03-23T12:34:38;22.53;;;4.47;;
17488;SDS011;8861;52.644;4.734;2023-03-23T12:37:17;21.80;;;4.63;;
17488;SDS011;8861;52.644;4.734;2023-03-23T12:40:16;19.80;;;4.37;;
17488;SDS011;8861;52.644;4.734;2023-03-23T12:42:53;16.30;;;3.80;;
17488;SDS011;8861;52.644;4.734;2023-03-23T12:45:39;24.73;;;4.50;;
17488;SDS011;8861;52.644;4.734;2023-03-23T12:48:15;27.53;;;4.93;;
17488;SDS011;8861;52.644;4.734;2023-03-23T12:50:47;16.77;;;3.87;;
17488;SDS011;8861;52.644;4.734;2023-03-23T12:53:28;18.57;;;4.53;;
17488;SDS011;8861;52.644;4.734;2023-03-23T12:56:04;17.83;;;3.93;;
17488;SDS011;8861;52.644;4.734;2023-03-23T12:58:37;24.53;;;4.17;;
17488;SDS011;8861;52.644;4.734;2023-03-23T13:01:10;19.97;;;4.13;;
17488;SDS011;8861;52.644;4.734;2023-03-23T13:03:44;23.13;;;3.93;;
17488;SDS011;8861;52.644;4.734;2023-03-23T13:06:17;22.17;;;4.60;;
17488;SDS011;8861;52.644;4.734;2023-03-23T13:08:49;19.67;;;4.17;;
17488;SDS011;8861;52.644;4.734;2023-03-23T13:11:22;21.97;;;4.10;;
17488;SDS011;8861;52.644;4.734;2023-03-23T13:13:54;21.67;;;4.30;;
17488;SDS011;8861;52.644;4.734;2023-03-23T13:16:29;21.17;;;4.47;;
17488;SDS011;8861;52.644;4.734;2023-03-23T13:19:06;25.57;;;5.00;;
17488;SDS011;8861;52.644;4.734;2023-03-23T13:21:41;19.97;;;4.63;;
17488;SDS011;8861;52.644;4.734;2023-03-23T13:24:13;18.87;;;4.10;;
17488;SDS011;8861;52.644;4.734;2023-03-23T13:26:43;17.67;;;4.03;;
17488;SDS011;8861;52.644;4.734;2023-03-23T13:29:13;21.10;;;4.27;;
17488;SDS011;8861;52.644;4.734;2023-03-23T13:31:45;21.93;;;4.70;;
17488;SDS011;8861;52.644;4.734;2023-03-23T13:34:15;23.20;;;4.83;;
17488;SDS011;8861;52.644;4.734;2023-03-23T13:36:51;19.90;;;4.30;;
17488;SDS011;8861;52.644;4.734;2023-03-23T13:39:21;19.07;;;4.63;;
17488;SDS011;8861;52.644;4.734;2023-03-23T13:44:54;23.63;;;4.70;;
17488;SDS011;8861;52.644;4.734;2023-03-23T13:47:27;24.70;;;4.40;;
17488;SDS011;8861;52.644;4.734;2023-03-23T13:50:03;23.30;;;4.70;;
17488;SDS011;8861;52.644;4.734;2023-03-23T13:52:46;20.77;;;4.50;;
17488;SDS011;8861;52.644;4.734;2023-03-23T13:55:19;23.33;;;4.13;;
17488;SDS011;8861;52.644;4.734;2023-03-23T13:57:55;27.80;;;4.70;;
17488;SDS011;8861;52.644;4.734;2023-03-23T14:00:36;21.20;;;4.30;;
17488;SDS011;8861;52.644;4.734;2023-03-23T14:03:14;20.50;;;4.43;;
17488;SDS011;8861;52.644;4.734;2023-03-23T14:05:44;23.80;;;4.93;;
17488;SDS011;8861;52.644;4.734;2023-03-23T14:08:20;24.17;;;4.63;;
17488;SDS011;8861;52.644;4.734;2023-03-23T14:10:50;27.67;;;4.70;;
17488;SDS011;8861;52.644;4.734;2023-03-23T14:13:22;28.73;;;5.20;;
17488;SDS011;8861;52.644;4.734;2023-03-23T14:15:55;26.17;;;4.50;;
17488;SDS011;8861;52.644;4.734;2023-03-23T14:18:25;28.07;;;5.17;;
17488;SDS011;8861;52.644;4.734;2023-03-23T14:20:56;27.83;;;5.37;;
17488;SDS011;8861;52.644;4.734;2023-03-23T14:23:25;20.83;;;4.87;;
17488;SDS011;8861;52.644;4.734;2023-03-23T14:25:55;21.17;;;4.93;;
17488;SDS011;8861;52.644;4.734;2023-03-23T14:28:30;26.83;;;5.23;;
17488;SDS011;8861;52.644;4.734;2023-03-23T14:30:59;27.57;;;5.20;;
17488;SDS011;8861;52.644;4.734;2023-03-23T14:33:27;23.80;;;4.70;;
17488;SDS011;8861;52.644;4.734;2023-03-23T14:35:56;29.20;;;5.03;;
17488;SDS011;8861;52.644;4.734;2023-03-23T14:38:24;27.97;;;5.53;;
17488;SDS011;8861;52.644;4.734;2023-03-23T14:40:59;27.03;;;5.23;;
17488;SDS011;8861;52.644;4.734;2023-03-23T14:43:28;24.27;;;4.70;;
17488;SDS011;8861;52.644;4.734;2023-03-23T14:45:58;27.90;;;5.40;;
17488;SDS011;8861;52.644;4.734;2023-03-23T14:48:29;21.00;;;4.70;;
17488;SDS011;8861;52.644;4.734;2023-03-23T14:50:57;27.97;;;5.40;;
17488;SDS011;8861;52.644;4.734;2023-03-23T14:53:29;24.90;;;4.67;;
17488;SDS011;8861;52.644;4.734;2023-03-23T14:55:59;23.30;;;4.97;;
17488;SDS011;8861;52.644;4.734;2023-03-23T14:58:29;26.20;;;5.40;;
17488;SDS011;8861;52.644;4.734;2023-03-23T15:00:58;28.23;;;5.13;;
17488;SDS011;8861;52.644;4.734;2023-03-23T15:03:27;23.47;;;4.73;;
17488;SDS011;8861;52.644;4.734;2023-03-23T15:05:59;21.60;;;4.73;;
17488;SDS011;8861;52.644;4.734;2023-03-23T15:08:30;26.00;;;5.10;;
17488;SDS011;8861;52.644;4.734;2023-03-23T15:11:03;23.57;;;4.80;;
17488;SDS011;8861;52.644;4.734;2023-03-23T15:13:33;24.50;;;4.80;;
17488;SDS011;8861;52.644;4.734;2023-03-23T15:16:03;24.83;;;4.90;;
17488;SDS011;8861;52.644;4.734;2023-03-23T15:18:34;24.53;;;5.53;;
17488;SDS011;8861;52.644;4.734;2023-03-23T15:21:09;23.27;;;4.70;;
17488;SDS011;8861;52.644;4.734;2023-03-23T15:23:41;26.00;;;5.37;;